sensor_id;sensor_type;location;lat;lon;timestamp;pressure;altitude;pressure_sealevel;temperature;humidity
10988;BME280;5547;42.672;23.230;2023-04-26T00:00:33;92346.50;;;5.32;100.00
10988;BME280;5547;42.672;23.230;2023-04-26T00:03:33;92361.78;;;5.44;100.00
10988;BME280;5547;42.672;23.230;2023-04-26T00:06:33;92331.94;;;5.20;100.00
10988;BME280;5547;42.672;23.230;2023-04-26T00:09:36;92334.66;;;5.13;100.00
10988;BME280;5547;42.672;23.230;2023-04-26T00:12:36;92334.03;;;5.02;100.00
10988;BME280;5547;42.672;23.230;2023-04-26T00:15:37;92284.28;;;4.66;100.00
10988;BME280;5547;42.672;23.230;2023-04-26T00:18:37;92332.91;;;4.99;100.00
10988;BME280;5547;42.672;23.230;2023-04-26T00:21:38;92328.41;;;4.96;100.00
10988;BME280;5547;42.672;23.230;2023-04-26T00:24:38;92336.03;;;4.87;100.00
10988;BME280;5547;42.672;23.230;2023-04-26T00:27:39;92324.06;;;4.79;100.00
10988;BME280;5547;42.672;23.230;2023-04-26T00:30:39;92305.13;;;4.53;100.00
10988;BME280;5547;42.672;23.230;2023-04-26T00:33:46;92285.66;;;4.40;100.00
10988;BME280;5547;42.672;23.230;2023-04-26T00:36:46;92266.28;;;4.19;100.00
10988;BME280;5547;42.672;23.230;2023-04-26T00:39:47;92322.31;;;4.65;100.00
10988;BME280;5547;42.672;23.230;2023-04-26T00:42:47;92323.84;;;4.62;100.00
10988;BME280;5547;42.672;23.230;2023-04-26T00:45:48;92310.69;;;4.62;100.00
10988;BME280;5547;42.672;23.230;2023-04-26T00:48:49;92320.06;;;4.67;100.00
10988;BME280;5547;42.672;23.230;2023-04-26T00:51:50;92320.78;;;4.68;100.00
10988;BME280;5547;42.672;23.230;2023-04-26T00:54:52;92311.56;;;4.45;100.00
10988;BME280;5547;42.672;23.230;2023-04-26T00:57:53;92314.22;;;4.45;100.00
10988;BME280;5547;42.672;23.230;2023-04-26T01:00:54;92315.66;;;4.53;100.00
10988;BME280;5547;42.672;23.230;2023-04-26T01:03:55;92298.06;;;4.43;100.00
10988;BME280;5547;42.672;23.230;2023-04-26T01:06:56;92325.47;;;4.49;100.00
10988;BME280;5547;42.672;23.230;2023-04-26T01:09:58;92329.66;;;4.43;100.00
10988;BME280;5547;42.672;23.230;2023-04-26T01:12:58;92284.72;;;4.19;100.00
10988;BME280;5547;42.672;23.230;2023-04-26T01:16:00;92313.34;;;4.59;100.00
10988;BME280;5547;42.672;23.230;2023-04-26T01:19:11;92313.63;;;4.72;100.00
10988;BME280;5547;42.672;23.230;2023-04-26T01:22:12;92312.16;;;4.67;100.00
10988;BME280;5547;42.672;23.230;2023-04-26T01:25:12;92309.91;;;4.62;100.00
10988;BME280;5547;42.672;23.230;2023-04-26T01:28:12;92297.59;;;4.55;100.00
10988;BME280;5547;42.672;23.230;2023-04-26T01:31:13;92305.88;;;4.54;100.00
10988;BME280;5547;42.672;23.230;2023-04-26T01:34:13;92293.22;;;4.38;100.00
10988;BME280;5547;42.672;23.230;2023-04-26T01:37:14;92324.53;;;4.70;100.00
10988;BME280;5547;42.672;23.230;2023-04-26T01:40:14;92329.78;;;4.70;100.00
10988;BME280;5547;42.672;23.230;2023-04-26T01:43:14;92330.53;;;4.71;100.00
10988;BME280;5547;42.672;23.230;2023-04-26T01:46:17;92259.88;;;4.20;100.00
10988;BME280;5547;42.672;23.230;2023-04-26T01:49:18;92329.78;;;4.74;100.00
10988;BME280;5547;42.672;23.230;2023-04-26T01:52:18;92285.91;;;4.53;100.00
10988;BME280;5547;42.672;23.230;2023-04-26T01:55:18;92297.81;;;4.72;100.00
10988;BME280;5547;42.672;23.230;2023-04-26T01:58:19;92295.09;;;4.79;100.00
10988;BME280;5547;42.672;23.230;2023-04-26T02:01:19;92253.13;;;4.61;100.00
10988;BME280;5547;42.672;23.230;2023-04-26T02:04:20;92275.41;;;4.91;100.00
10988;BME280;5547;42.672;23.230;2023-04-26T02:07:20;92282.06;;;5.02;100.00
10988;BME280;5547;42.672;23.230;2023-04-26T02:10:21;92306.44;;;5.10;100.00
10988;BME280;5547;42.672;23.230;2023-04-26T02:13:21;92292.25;;;5.00;100.00
10988;BME280;5547;42.672;23.230;2023-04-26T02:16:22;92296.72;;;5.03;100.00
10988;BME280;5547;42.672;23.230;2023-04-26T02:19:22;92151.28;;;4.16;100.00
10988;BME280;5547;42.672;23.230;2023-04-26T02:22:23;92286.81;;;5.15;100.00
10988;BME280;5547;42.672;23.230;2023-04-26T02:25:24;92290.16;;;5.19;100.00
10988;BME280;5547;42.672;23.230;2023-04-26T02:28:24;92289.78;;;5.17;100.00
10988;BME280;5547;42.672;23.230;2023-04-26T02:31:25;92283.22;;;5.32;100.00
10988;BME280;5547;42.672;23.230;2023-04-26T02:34:27;92305.75;;;5.37;100.00
10988;BME280;5547;42.672;23.230;2023-04-26T02:37:28;92256.00;;;5.08;100.00
10988;BME280;5547;42.672;23.230;2023-04-26T02:40:28;92303.25;;;5.57;100.00
10988;BME280;5547;42.672;23.230;2023-04-26T02:43:29;92282.91;;;5.57;100.00
10988;BME280;5547;42.672;23.230;2023-04-26T02:46:30;92293.56;;;5.77;100.00
10988;BME280;5547;42.672;23.230;2023-04-26T02:49:30;92286.06;;;5.76;100.00
10988;BME280;5547;42.672;23.230;2023-04-26T02:52:30;92268.88;;;5.64;100.00
10988;BME280;5547;42.672;23.230;2023-04-26T02:55:31;92248.97;;;5.59;100.00
10988;BME280;5547;42.672;23.230;2023-04-26T02:58:32;92237.72;;;5.55;100.00
10988;BME280;5547;42.672;23.230;2023-04-26T03:01:32;92280.25;;;5.84;100.00
10988;BME280;5547;42.672;23.230;2023-04-26T03:04:32;92272.81;;;5.79;100.00
10988;BME280;5547;42.672;23.230;2023-04-26T03:07:33;92262.81;;;5.67;100.00
10988;BME280;5547;42.672;23.230;2023-04-26T03:10:34;92138.88;;;4.82;100.00
10988;BME280;5547;42.672;23.230;2023-04-26T03:13:34;92275.28;;;5.63;100.00
10988;BME280;5547;42.672;23.230;2023-04-26T03:16:40;92275.56;;;5.99;100.00
10988;BME280;5547;42.672;23.230;2023-04-26T03:19:41;92233.78;;;5.67;100.00
10988;BME280;5547;42.672;23.230;2023-04-26T03:22:42;92283.59;;;5.88;100.00
10988;BME280;5547;42.672;23.230;2023-04-26T03:25:42;92240.88;;;5.16;100.00
10988;BME280;5547;42.672;23.230;2023-04-26T03:28:43;92275.31;;;5.32;100.00
10988;BME280;5547;42.672;23.230;2023-04-26T03:31:43;92284.41;;;5.28;100.00
10988;BME280;5547;42.672;23.230;2023-04-26T03:34:44;92278.72;;;5.29;100.00
10988;BME280;5547;42.672;23.230;2023-04-26T03:37:44;92255.78;;;4.95;100.00
10988;BME280;5547;42.672;23.230;2023-04-26T03:40:45;92297.34;;;5.15;100.00
10988;BME280;5547;42.672;23.230;2023-04-26T03:43:45;92293.31;;;5.07;100.00
10988;BME280;5547;42.672;23.230;2023-04-26T03:46:46;92293.75;;;5.01;100.00
10988;BME280;5547;42.672;23.230;2023-04-26T03:49:46;92295.22;;;5.02;100.00
10988;BME280;5547;42.672;23.230;2023-04-26T03:52:46;92233.88;;;4.68;100.00
10988;BME280;5547;42.672;23.230;2023-04-26T03:55:47;92300.75;;;5.15;100.00
10988;BME280;5547;42.672;23.230;2023-04-26T03:58:47;92308.97;;;5.17;100.00
10988;BME280;5547;42.672;23.230;2023-04-26T04:01:48;92279.06;;;5.00;100.00
10988;BME280;5547;42.672;23.230;2023-04-26T04:04:48;92267.41;;;4.98;100.00
10988;BME280;5547;42.672;23.230;2023-04-26T04:07:48;92267.66;;;5.11;100.00
10988;BME280;5547;42.672;23.230;2023-04-26T04:10:49;92301.88;;;5.45;100.00
10988;BME280;5547;42.672;23.230;2023-04-26T04:13:50;92291.41;;;5.41;100.00
10988;BME280;5547;42.672;23.230;2023-04-26T04:16:50;92282.81;;;5.64;100.00
10988;BME280;5547;42.672;23.230;2023-04-26T04:19:50;92302.28;;;5.74;100.00
10988;BME280;5547;42.672;23.230;2023-04-26T04:22:52;92317.31;;;6.08;100.00
10988;BME280;5547;42.672;23.230;2023-04-26T04:25:52;92304.25;;;5.97;100.00
10988;BME280;5547;42.672;23.230;2023-04-26T04:28:53;92312.84;;;6.28;100.00
10988;BME280;5547;42.672;23.230;2023-04-26T04:31:57;92256.09;;;5.89;100.00
10988;BME280;5547;42.672;23.230;2023-04-26T04:34:58;92308.53;;;6.15;100.00
10988;BME280;5547;42.672;23.230;2023-04-26T04:37:59;92330.19;;;6.29;100.00
10988;BME280;5547;42.672;23.230;2023-04-26T04:40:59;92308.13;;;6.40;100.00
10988;BME280;5547;42.672;23.230;2023-04-26T04:43:59;92339.03;;;6.90;100.00
10988;BME280;5547;42.672;23.230;2023-04-26T04:47:00;92343.00;;;7.22;100.00
10988;BME280;5547;42.672;23.230;2023-04-26T04:50:01;92339.63;;;7.41;100.00
10988;BME280;5547;42.672;23.230;2023-04-26T04:53:01;92330.06;;;7.27;100.00
10988;BME280;5547;42.672;23.230;2023-04-26T04:56:02;92343.69;;;7.26;100.00
10988;BME280;5547;42.672;23.230;2023-04-26T04:59:02;92338.00;;;7.47;100.00
10988;BME280;5547;42.672;23.230;2023-04-26T05:02:03;92318.41;;;7.45;100.00
10988;BME280;5547;42.672;23.230;2023-04-26T05:05:04;92339.72;;;7.74;100.00
10988;BME280;5547;42.672;23.230;2023-04-26T05:08:05;92328.34;;;7.77;100.00
10988;BME280;5547;42.672;23.230;2023-04-26T05:11:08;92329.47;;;7.96;100.00
10988;BME280;5547;42.672;23.230;2023-04-26T05:14:08;92353.44;;;8.25;100.00
10988;BME280;5547;42.672;23.230;2023-04-26T05:17:09;92356.59;;;8.36;100.00
10988;BME280;5547;42.672;23.230;2023-04-26T05:20:09;92346.09;;;8.49;100.00
10988;BME280;5547;42.672;23.230;2023-04-26T05:23:10;92363.41;;;8.70;100.00
10988;BME280;5547;42.672;23.230;2023-04-26T05:26:15;92355.72;;;8.92;100.00
10988;BME280;5547;42.672;23.230;2023-04-26T05:29:15;92301.41;;;8.97;100.00
10988;BME280;5547;42.672;23.230;2023-04-26T05:32:16;92328.69;;;8.81;100.00
10988;BME280;5547;42.672;23.230;2023-04-26T05:35:16;92312.94;;;8.90;100.00
10988;BME280;5547;42.672;23.230;2023-04-26T05:38:17;92377.25;;;9.40;100.00
10988;BME280;5547;42.672;23.230;2023-04-26T05:41:17;92380.34;;;9.51;100.00
10988;BME280;5547;42.672;23.230;2023-04-26T05:44:17;92383.44;;;9.50;100.00
10988;BME280;5547;42.672;23.230;2023-04-26T05:47:18;92388.81;;;9.17;100.00
10988;BME280;5547;42.672;23.230;2023-04-26T05:50:18;92373.38;;;9.28;100.00
10988;BME280;5547;42.672;23.230;2023-04-26T05:53:19;92398.31;;;9.31;100.00
10988;BME280;5547;42.672;23.230;2023-04-26T05:56:19;92327.97;;;8.80;100.00
10988;BME280;5547;42.672;23.230;2023-04-26T05:59:20;92393.47;;;9.13;100.00
10988;BME280;5547;42.672;23.230;2023-04-26T06:02:20;92395.84;;;9.23;100.00
10988;BME280;5547;42.672;23.230;2023-04-26T06:05:21;92397.94;;;9.16;100.00
10988;BME280;5547;42.672;23.230;2023-04-26T06:08:22;92387.06;;;9.56;100.00
10988;BME280;5547;42.672;23.230;2023-04-26T06:11:22;92378.31;;;9.72;100.00
10988;BME280;5547;42.672;23.230;2023-04-26T06:14:22;92362.81;;;9.41;100.00
10988;BME280;5547;42.672;23.230;2023-04-26T06:17:23;92406.03;;;9.71;100.00
10988;BME280;5547;42.672;23.230;2023-04-26T06:20:24;92368.88;;;8.79;100.00
10988;BME280;5547;42.672;23.230;2023-04-26T06:23:25;92364.94;;;9.17;100.00
10988;BME280;5547;42.672;23.230;2023-04-26T06:26:25;92398.09;;;9.25;100.00
10988;BME280;5547;42.672;23.230;2023-04-26T06:29:29;92414.56;;;9.33;100.00
10988;BME280;5547;42.672;23.230;2023-04-26T06:32:30;92417.94;;;9.04;100.00
10988;BME280;5547;42.672;23.230;2023-04-26T06:35:30;92406.56;;;8.71;100.00
10988;BME280;5547;42.672;23.230;2023-04-26T06:38:31;92358.09;;;8.70;100.00
10988;BME280;5547;42.672;23.230;2023-04-26T06:41:31;92354.34;;;8.35;100.00
10988;BME280;5547;42.672;23.230;2023-04-26T06:44:31;92410.38;;;8.70;100.00
10988;BME280;5547;42.672;23.230;2023-04-26T06:47:32;92428.53;;;9.20;100.00
10988;BME280;5547;42.672;23.230;2023-04-26T06:50:32;92398.00;;;9.29;100.00
10988;BME280;5547;42.672;23.230;2023-04-26T06:53:36;92414.59;;;9.16;100.00
10988;BME280;5547;42.672;23.230;2023-04-26T06:56:36;92419.94;;;9.45;100.00
10988;BME280;5547;42.672;23.230;2023-04-26T06:59:37;92376.66;;;8.87;100.00
10988;BME280;5547;42.672;23.230;2023-04-26T07:02:37;92396.44;;;8.49;100.00
10988;BME280;5547;42.672;23.230;2023-04-26T07:05:38;92427.53;;;8.81;100.00
10988;BME280;5547;42.672;23.230;2023-04-26T07:08:39;92419.00;;;8.90;100.00
10988;BME280;5547;42.672;23.230;2023-04-26T07:11:40;92383.25;;;9.28;100.00
10988;BME280;5547;42.672;23.230;2023-04-26T07:14:40;92382.09;;;9.12;100.00
10988;BME280;5547;42.672;23.230;2023-04-26T07:17:42;92426.44;;;9.74;100.00
10988;BME280;5547;42.672;23.230;2023-04-26T07:20:42;92398.13;;;9.38;100.00
10988;BME280;5547;42.672;23.230;2023-04-26T07:23:43;92421.44;;;9.46;100.00
10988;BME280;5547;42.672;23.230;2023-04-26T07:26:43;92439.56;;;9.64;100.00
10988;BME280;5547;42.672;23.230;2023-04-26T07:29:44;92440.94;;;9.40;100.00
10988;BME280;5547;42.672;23.230;2023-04-26T07:32:44;92446.09;;;8.98;100.00
10988;BME280;5547;42.672;23.230;2023-04-26T07:35:52;92419.34;;;8.76;100.00
10988;BME280;5547;42.672;23.230;2023-04-26T07:38:54;92449.75;;;9.04;100.00
10988;BME280;5547;42.672;23.230;2023-04-26T07:41:54;92449.94;;;8.97;100.00
10988;BME280;5547;42.672;23.230;2023-04-26T07:44:55;92447.28;;;9.13;100.00
10988;BME280;5547;42.672;23.230;2023-04-26T07:47:55;92457.88;;;9.30;100.00
10988;BME280;5547;42.672;23.230;2023-04-26T07:50:56;92454.13;;;9.43;100.00
10988;BME280;5547;42.672;23.230;2023-04-26T07:53:56;92452.28;;;9.57;100.00
10988;BME280;5547;42.672;23.230;2023-04-26T07:56:57;92421.03;;;9.48;100.00
10988;BME280;5547;42.672;23.230;2023-04-26T07:59:57;92462.34;;;10.07;100.00
10988;BME280;5547;42.672;23.230;2023-04-26T08:02:58;92458.00;;;9.55;100.00
10988;BME280;5547;42.672;23.230;2023-04-26T08:05:58;92406.63;;;9.62;100.00
10988;BME280;5547;42.672;23.230;2023-04-26T08:08:58;92458.13;;;10.23;100.00
10988;BME280;5547;42.672;23.230;2023-04-26T08:11:59;92406.25;;;9.47;100.00
10988;BME280;5547;42.672;23.230;2023-04-26T08:15:00;92461.34;;;9.72;100.00
10988;BME280;5547;42.672;23.230;2023-04-26T08:18:01;92435.53;;;9.73;100.00
10988;BME280;5547;42.672;23.230;2023-04-26T08:21:01;92450.50;;;9.66;100.00
10988;BME280;5547;42.672;23.230;2023-04-26T08:24:02;92442.63;;;9.92;100.00
10988;BME280;5547;42.672;23.230;2023-04-26T08:27:03;92463.41;;;9.81;100.00
10988;BME280;5547;42.672;23.230;2023-04-26T08:30:04;92440.06;;;9.59;86.60
10988;BME280;5547;42.672;23.230;2023-04-26T08:33:04;92469.66;;;10.03;84.96
10988;BME280;5547;42.672;23.230;2023-04-26T08:36:06;92456.81;;;10.69;83.99
10988;BME280;5547;42.672;23.230;2023-04-26T08:39:07;92423.00;;;10.02;83.28
10988;BME280;5547;42.672;23.230;2023-04-26T08:42:15;92448.66;;;10.22;85.69
10988;BME280;5547;42.672;23.230;2023-04-26T08:45:16;92457.28;;;10.26;82.64
10988;BME280;5547;42.672;23.230;2023-04-26T08:48:16;92369.16;;;9.73;84.14
10988;BME280;5547;42.672;23.230;2023-04-26T08:51:17;92456.19;;;10.40;81.60
10988;BME280;5547;42.672;23.230;2023-04-26T08:54:19;92472.78;;;10.69;82.02
10988;BME280;5547;42.672;23.230;2023-04-26T08:57:20;92461.41;;;10.69;79.59
10988;BME280;5547;42.672;23.230;2023-04-26T09:00:21;92465.34;;;10.77;79.12
10988;BME280;5547;42.672;23.230;2023-04-26T09:03:22;92456.72;;;10.47;80.99
10988;BME280;5547;42.672;23.230;2023-04-26T09:06:25;92464.47;;;10.67;80.05
10988;BME280;5547;42.672;23.230;2023-04-26T09:09:32;92454.69;;;10.64;79.64
10988;BME280;5547;42.672;23.230;2023-04-26T09:12:34;92464.88;;;10.53;79.26
10988;BME280;5547;42.672;23.230;2023-04-26T09:15:34;92468.84;;;11.12;79.34
10988;BME280;5547;42.672;23.230;2023-04-26T09:18:47;92454.38;;;10.49;77.79
10988;BME280;5547;42.672;23.230;2023-04-26T09:21:49;92483.75;;;10.84;76.84
10988;BME280;5547;42.672;23.230;2023-04-26T09:24:50;92446.06;;;10.99;76.23
10988;BME280;5547;42.672;23.230;2023-04-26T09:27:53;92476.50;;;11.23;76.22
10988;BME280;5547;42.672;23.230;2023-04-26T09:30:53;92433.69;;;11.18;75.77
10988;BME280;5547;42.672;23.230;2023-04-26T09:33:58;92475.75;;;11.10;75.62
10988;BME280;5547;42.672;23.230;2023-04-26T09:36:59;92478.84;;;11.69;72.75
10988;BME280;5547;42.672;23.230;2023-04-26T09:39:59;92472.03;;;10.94;73.92
10988;BME280;5547;42.672;23.230;2023-04-26T09:46:00;92475.91;;;11.54;77.24
10988;BME280;5547;42.672;23.230;2023-04-26T09:49:01;92458.00;;;11.07;73.53
10988;BME280;5547;42.672;23.230;2023-04-26T09:52:05;92462.22;;;11.17;74.85
10988;BME280;5547;42.672;23.230;2023-04-26T09:55:06;92471.59;;;11.34;72.83
10988;BME280;5547;42.672;23.230;2023-04-26T09:58:08;92459.44;;;12.03;70.67
10988;BME280;5547;42.672;23.230;2023-04-26T10:01:09;92460.81;;;11.73;72.43
10988;BME280;5547;42.672;23.230;2023-04-26T10:04:10;92447.22;;;12.15;71.54
10988;BME280;5547;42.672;23.230;2023-04-26T10:07:12;92443.41;;;12.16;71.16
10988;BME280;5547;42.672;23.230;2023-04-26T10:10:13;92446.50;;;12.36;66.61
10988;BME280;5547;42.672;23.230;2023-04-26T10:13:14;92459.00;;;12.27;69.32
10988;BME280;5547;42.672;23.230;2023-04-26T10:16:16;92446.78;;;11.94;71.12
10988;BME280;5547;42.672;23.230;2023-04-26T10:19:16;92460.94;;;12.26;65.32
10988;BME280;5547;42.672;23.230;2023-04-26T10:22:21;92464.47;;;11.66;66.38
10988;BME280;5547;42.672;23.230;2023-04-26T10:25:33;92419.63;;;11.30;66.51
10988;BME280;5547;42.672;23.230;2023-04-26T10:32:04;92454.13;;;11.68;66.46
10988;BME280;5547;42.672;23.230;2023-04-26T10:35:11;92421.22;;;11.62;65.13
10988;BME280;5547;42.672;23.230;2023-04-26T10:38:12;92459.25;;;11.63;66.60
10988;BME280;5547;42.672;23.230;2023-04-26T10:41:45;92443.03;;;11.70;66.73
10988;BME280;5547;42.672;23.230;2023-04-26T10:44:45;92450.28;;;11.34;64.11
10988;BME280;5547;42.672;23.230;2023-04-26T10:47:46;92442.50;;;11.40;62.95
10988;BME280;5547;42.672;23.230;2023-04-26T10:51:10;92454.41;;;11.48;63.10
10988;BME280;5547;42.672;23.230;2023-04-26T10:54:11;92447.06;;;11.74;64.50
10988;BME280;5547;42.672;23.230;2023-04-26T10:57:13;92450.47;;;11.75;63.39
10988;BME280;5547;42.672;23.230;2023-04-26T11:00:27;92452.19;;;12.04;62.95
10988;BME280;5547;42.672;23.230;2023-04-26T11:03:29;92436.41;;;11.74;62.11
10988;BME280;5547;42.672;23.230;2023-04-26T11:06:50;92439.41;;;11.76;65.91
10988;BME280;5547;42.672;23.230;2023-04-26T11:09:51;92446.53;;;11.80;65.71
10988;BME280;5547;42.672;23.230;2023-04-26T11:13:01;92452.50;;;11.71;60.58
10988;BME280;5547;42.672;23.230;2023-04-26T11:16:07;92443.63;;;11.52;60.60
10988;BME280;5547;42.672;23.230;2023-04-26T11:19:08;92439.75;;;11.31;62.19
10988;BME280;5547;42.672;23.230;2023-04-26T11:22:09;92416.97;;;11.30;62.68
10988;BME280;5547;42.672;23.230;2023-04-26T11:25:11;92450.66;;;11.59;61.33
10988;BME280;5547;42.672;23.230;2023-04-26T11:28:13;92444.34;;;12.00;61.82
10988;BME280;5547;42.672;23.230;2023-04-26T11:31:13;92454.81;;;12.38;63.31
10988;BME280;5547;42.672;23.230;2023-04-26T11:34:14;92438.00;;;12.29;60.13
10988;BME280;5547;42.672;23.230;2023-04-26T11:37:15;92452.03;;;11.85;64.41
10988;BME280;5547;42.672;23.230;2023-04-26T11:40:17;92450.16;;;12.08;63.24
10988;BME280;5547;42.672;23.230;2023-04-26T11:43:17;92358.09;;;10.93;64.10
10988;BME280;5547;42.672;23.230;2023-04-26T11:46:19;92452.63;;;11.32;64.89
10988;BME280;5547;42.672;23.230;2023-04-26T11:49:21;92414.56;;;11.10;61.97
10988;BME280;5547;42.672;23.230;2023-04-26T11:52:21;92404.09;;;11.50;62.71
10988;BME280;5547;42.672;23.230;2023-04-26T11:55:23;92427.25;;;11.41;62.53
10988;BME280;5547;42.672;23.230;2023-04-26T11:58:27;92448.53;;;12.10;62.47
10988;BME280;5547;42.672;23.230;2023-04-26T12:01:28;92455.69;;;12.13;60.15
10988;BME280;5547;42.672;23.230;2023-04-26T12:04:29;92434.88;;;11.86;61.33
10988;BME280;5547;42.672;23.230;2023-04-26T12:07:36;92415.75;;;11.78;61.29
10988;BME280;5547;42.672;23.230;2023-04-26T12:10:37;92433.94;;;11.93;61.74
10988;BME280;5547;42.672;23.230;2023-04-26T12:13:38;92392.44;;;11.92;61.30
10988;BME280;5547;42.672;23.230;2023-04-26T12:16:41;92443.50;;;12.34;60.55
10988;BME280;5547;42.672;23.230;2023-04-26T12:19:41;92378.97;;;12.17;57.97
10988;BME280;5547;42.672;23.230;2023-04-26T12:22:59;92401.28;;;12.02;58.36
10988;BME280;5547;42.672;23.230;2023-04-26T12:25:59;92430.41;;;12.49;56.47
10988;BME280;5547;42.672;23.230;2023-04-26T12:29:02;92383.41;;;11.67;58.58
10988;BME280;5547;42.672;23.230;2023-04-26T12:32:03;92440.00;;;12.15;58.21
10988;BME280;5547;42.672;23.230;2023-04-26T12:35:04;92399.13;;;12.18;57.19
10988;BME280;5547;42.672;23.230;2023-04-26T12:38:05;92436.25;;;12.13;57.32
10988;BME280;5547;42.672;23.230;2023-04-26T12:41:06;92405.78;;;11.92;56.64
10988;BME280;5547;42.672;23.230;2023-04-26T12:44:07;92428.78;;;11.98;57.17
10988;BME280;5547;42.672;23.230;2023-04-26T12:47:08;92402.84;;;12.21;57.36
10988;BME280;5547;42.672;23.230;2023-04-26T12:50:09;92412.31;;;11.78;56.02
10988;BME280;5547;42.672;23.230;2023-04-26T12:53:11;92425.38;;;11.85;57.16
10988;BME280;5547;42.672;23.230;2023-04-26T12:56:13;92377.41;;;11.98;58.49
10988;BME280;5547;42.672;23.230;2023-04-26T12:59:15;92415.44;;;11.98;56.70
10988;BME280;5547;42.672;23.230;2023-04-26T13:02:15;92380.22;;;11.60;58.46
10988;BME280;5547;42.672;23.230;2023-04-26T13:05:16;92432.09;;;11.90;59.34
10988;BME280;5547;42.672;23.230;2023-04-26T13:08:16;92393.59;;;11.12;59.46
10988;BME280;5547;42.672;23.230;2023-04-26T13:11:17;92446.22;;;11.43;59.09
10988;BME280;5547;42.672;23.230;2023-04-26T13:14:17;92428.34;;;11.65;58.60
10988;BME280;5547;42.672;23.230;2023-04-26T13:17:18;92438.47;;;11.70;58.55
10988;BME280;5547;42.672;23.230;2023-04-26T13:20:18;92403.22;;;11.31;58.10
10988;BME280;5547;42.672;23.230;2023-04-26T13:23:18;92446.69;;;11.28;59.23
10988;BME280;5547;42.672;23.230;2023-04-26T13:26:19;92394.16;;;10.94;59.28
10988;BME280;5547;42.672;23.230;2023-04-26T13:29:19;92470.03;;;11.11;57.91
10988;BME280;5547;42.672;23.230;2023-04-26T13:32:20;92464.78;;;10.95;59.96
10988;BME280;5547;42.672;23.230;2023-04-26T13:35:21;92465.25;;;10.68;61.42
10988;BME280;5547;42.672;23.230;2023-04-26T13:38:21;92483.41;;;10.69;61.15
10988;BME280;5547;42.672;23.230;2023-04-26T13:41:22;92454.78;;;10.35;61.78
10988;BME280;5547;42.672;23.230;2023-04-26T13:44:24;92467.00;;;10.45;59.67
10988;BME280;5547;42.672;23.230;2023-04-26T13:47:24;92475.19;;;10.51;61.54
10988;BME280;5547;42.672;23.230;2023-04-26T13:50:24;92464.34;;;10.45;60.64
10988;BME280;5547;42.672;23.230;2023-04-26T13:53:25;92427.72;;;10.24;61.18
10988;BME280;5547;42.672;23.230;2023-04-26T13:56:25;92484.03;;;10.48;62.48
10988;BME280;5547;42.672;23.230;2023-04-26T13:59:26;92467.94;;;9.97;64.11
10988;BME280;5547;42.672;23.230;2023-04-26T14:02:26;92487.97;;;10.14;64.80
10988;BME280;5547;42.672;23.230;2023-04-26T14:05:27;92498.50;;;10.18;65.48
10988;BME280;5547;42.672;23.230;2023-04-26T14:08:28;92461.31;;;9.59;64.02
10988;BME280;5547;42.672;23.230;2023-04-26T14:11:29;92432.41;;;9.32;63.84
10988;BME280;5547;42.672;23.230;2023-04-26T14:14:29;92513.56;;;9.62;65.09
10988;BME280;5547;42.672;23.230;2023-04-26T14:17:30;92493.34;;;9.52;65.80
10988;BME280;5547;42.672;23.230;2023-04-26T14:20:31;92493.19;;;9.43;65.05
10988;BME280;5547;42.672;23.230;2023-04-26T14:23:31;92517.38;;;9.45;67.05
10988;BME280;5547;42.672;23.230;2023-04-26T14:26:32;92496.44;;;9.18;67.90
10988;BME280;5547;42.672;23.230;2023-04-26T14:29:32;92521.78;;;9.35;68.27
10988;BME280;5547;42.672;23.230;2023-04-26T14:32:33;92463.75;;;8.88;69.51
10988;BME280;5547;42.672;23.230;2023-04-26T14:35:33;92524.88;;;9.34;70.01
10988;BME280;5547;42.672;23.230;2023-04-26T14:38:34;92514.25;;;9.17;69.95
10988;BME280;5547;42.672;23.230;2023-04-26T14:41:35;92472.44;;;8.72;71.18
10988;BME280;5547;42.672;23.230;2023-04-26T14:44:36;92501.94;;;8.74;71.27
10988;BME280;5547;42.672;23.230;2023-04-26T14:47:37;92535.59;;;8.94;73.24
10988;BME280;5547;42.672;23.230;2023-04-26T14:50:37;92540.53;;;9.12;73.13
10988;BME280;5547;42.672;23.230;2023-04-26T14:53:38;92507.97;;;8.75;73.55
10988;BME280;5547;42.672;23.230;2023-04-26T14:56:38;92542.47;;;8.91;74.13
10988;BME280;5547;42.672;23.230;2023-04-26T14:59:38;92549.38;;;9.05;73.67
10988;BME280;5547;42.672;23.230;2023-04-26T15:02:39;92523.00;;;8.81;74.83
10988;BME280;5547;42.672;23.230;2023-04-26T15:05:39;92556.75;;;8.97;74.18
10988;BME280;5547;42.672;23.230;2023-04-26T15:08:40;92560.78;;;8.86;74.79
10988;BME280;5547;42.672;23.230;2023-04-26T15:11:40;92565.91;;;8.76;76.06
10988;BME280;5547;42.672;23.230;2023-04-26T15:14:40;92560.97;;;8.95;74.97
10988;BME280;5547;42.672;23.230;2023-04-26T15:17:41;92541.81;;;8.51;75.93
10988;BME280;5547;42.672;23.230;2023-04-26T15:20:41;92582.97;;;8.75;75.83
10988;BME280;5547;42.672;23.230;2023-04-26T15:23:41;92583.38;;;8.74;76.78
10988;BME280;5547;42.672;23.230;2023-04-26T15:26:42;92486.16;;;7.91;77.06
10988;BME280;5547;42.672;23.230;2023-04-26T15:29:43;92576.31;;;8.67;77.35
10988;BME280;5547;42.672;23.230;2023-04-26T15:32:46;92583.44;;;8.70;78.37
10988;BME280;5547;42.672;23.230;2023-04-26T15:35:49;92564.28;;;8.43;77.21
10988;BME280;5547;42.672;23.230;2023-04-26T15:38:50;92561.47;;;8.10;78.66
10988;BME280;5547;42.672;23.230;2023-04-26T15:41:50;92603.59;;;8.24;79.41
10988;BME280;5547;42.672;23.230;2023-04-26T15:44:52;92542.16;;;7.89;79.65
10988;BME280;5547;42.672;23.230;2023-04-26T15:47:53;92608.19;;;8.20;80.10
10988;BME280;5547;42.672;23.230;2023-04-26T15:50:54;92606.50;;;8.10;80.92
10988;BME280;5547;42.672;23.230;2023-04-26T15:53:55;92595.19;;;7.86;82.18
10988;BME280;5547;42.672;23.230;2023-04-26T15:56:56;92595.00;;;7.73;83.18
10988;BME280;5547;42.672;23.230;2023-04-26T15:59:57;92625.91;;;7.79;83.60
10988;BME280;5547;42.672;23.230;2023-04-26T16:02:57;92612.03;;;7.72;85.39
10988;BME280;5547;42.672;23.230;2023-04-26T16:05:58;92630.88;;;7.74;84.37
10988;BME280;5547;42.672;23.230;2023-04-26T16:08:58;92620.50;;;7.63;87.23